createdAt,value
2023-02-16T00:00:28.862Z,4.65
2023-02-16T00:04:31.322Z,3.55
2023-02-16T00:08:32.746Z,3.80
2023-02-16T00:12:52.768Z,3.38
2023-02-16T00:16:55.547Z,3.20
2023-02-16T00:20:56.972Z,3.42
2023-02-16T00:24:58.435Z,3.35
2023-02-16T00:29:00.013Z,3.80
2023-02-16T00:33:01.612Z,4.50
2023-02-16T00:37:09.219Z,4.07
2023-02-16T00:41:41.009Z,3.58
2023-02-16T00:45:42.494Z,3.38
2023-02-16T00:49:44.481Z,2.78
2023-02-16T00:53:45.920Z,2.00
2023-02-16T00:57:52.224Z,5.03
2023-02-16T01:01:54.084Z,3.53
2023-02-16T01:06:15.182Z,4.60
2023-02-16T01:10:37.344Z,3.08
2023-02-16T01:14:38.826Z,3.97
2023-02-16T01:18:40.403Z,3.83
2023-02-16T01:22:41.879Z,3.83
2023-02-16T01:26:48.973Z,4.22
2023-02-16T01:30:51.899Z,3.97
2023-02-16T01:34:53.416Z,4.35
2023-02-16T01:38:55.135Z,5.22
2023-02-16T01:43:14.736Z,3.70
2023-02-16T01:47:30.153Z,3.88
2023-02-16T01:51:48.616Z,4.72
2023-02-16T01:55:58.084Z,2.92
2023-02-16T02:00:08.445Z,4.90
2023-02-16T02:04:58.819Z,5.20
2023-02-16T02:09:06.065Z,4.68
2023-02-16T02:13:15.444Z,5.18
2023-02-16T02:17:20.141Z,5.05
2023-02-16T02:21:51.596Z,2.90
2023-02-16T02:26:30.606Z,3.03
2023-02-16T02:30:45.833Z,2.88
2023-02-16T02:35:13.547Z,4.90
2023-02-16T02:39:34.690Z,3.97
2023-02-16T02:43:52.871Z,3.35
2023-02-16T02:47:54.586Z,3.13
2023-02-16T02:51:57.779Z,4.38
2023-02-16T02:56:29.243Z,4.53
2023-02-16T03:00:51.524Z,2.65
2023-02-16T03:04:55.766Z,3.10
2023-02-16T03:09:05.925Z,5.00
2023-02-16T03:13:16.454Z,4.10
2023-02-16T03:17:41.174Z,4.75
2023-02-16T03:22:02.245Z,3.67
2023-02-16T03:26:22.564Z,4.97
2023-02-16T03:30:25.769Z,3.92
2023-02-16T03:34:28.894Z,4.72
2023-02-16T03:38:31.295Z,4.45
2023-02-16T03:42:32.763Z,4.45
2023-02-16T03:46:34.336Z,4.03
2023-02-16T03:50:35.771Z,4.25
2023-02-16T03:54:37.272Z,4.57
2023-02-16T03:58:38.787Z,4.28
2023-02-16T04:02:40.223Z,4.45
2023-02-16T04:06:41.714Z,5.80
2023-02-16T04:10:43.939Z,4.93
2023-02-16T04:14:45.443Z,5.53
2023-02-16T04:18:46.894Z,4.45
2023-02-16T04:22:49.259Z,4.25
2023-02-16T04:26:50.841Z,3.50
2023-02-16T04:30:52.412Z,3.15
2023-02-16T04:34:54.003Z,3.47
2023-02-16T04:38:55.442Z,5.90
2023-02-16T04:42:56.922Z,5.20
2023-02-16T04:46:58.370Z,4.25
2023-02-16T04:50:59.837Z,3.88
2023-02-16T04:55:01.292Z,3.35
2023-02-16T04:59:02.875Z,3.35
2023-02-16T05:03:04.365Z,4.25
2023-02-16T05:07:05.784Z,4.50
2023-02-16T05:11:25.896Z,5.63
2023-02-16T05:15:27.358Z,2.85
2023-02-16T05:19:28.803Z,6.28
2023-02-16T05:23:30.213Z,4.93
2023-02-16T05:27:31.793Z,3.85
2023-02-16T05:31:33.674Z,6.13
2023-02-16T05:35:35.503Z,5.07
2023-02-16T05:39:36.958Z,3.97
2023-02-16T05:43:38.370Z,4.75
2023-02-16T05:47:39.794Z,4.63
2023-02-16T05:51:41.857Z,6.30
2023-02-16T05:55:43.812Z,6.72
2023-02-16T05:59:45.269Z,6.15
2023-02-16T06:03:47.494Z,6.00
2023-02-16T06:07:48.929Z,5.47
2023-02-16T06:11:50.396Z,4.45
2023-02-16T06:15:56.994Z,5.72
2023-02-16T06:19:58.480Z,6.57
2023-02-16T06:24:00.425Z,5.97
2023-02-16T06:28:01.972Z,7.22
2023-02-16T06:32:03.788Z,8.35
2023-02-16T06:36:06.299Z,6.00
2023-02-16T06:40:14.224Z,6.25
2023-02-16T06:44:16.611Z,4.97
2023-02-16T06:48:18.067Z,4.35
2023-02-16T06:52:19.580Z,4.30
2023-02-16T06:56:21.425Z,4.35
2023-02-16T07:00:23.290Z,4.50
2023-02-16T07:04:24.804Z,5.20
2023-02-16T07:08:26.226Z,4.40
2023-02-16T07:12:28.149Z,5.30
2023-02-16T07:16:29.792Z,4.70
2023-02-16T07:20:31.746Z,3.83
2023-02-16T07:24:33.171Z,4.63
2023-02-16T07:28:34.623Z,5.63
2023-02-16T07:32:36.188Z,6.45
2023-02-16T07:36:37.612Z,6.40
2023-02-16T07:40:39.456Z,4.45
2023-02-16T07:44:40.859Z,5.72
2023-02-16T07:48:42.250Z,5.60
2023-02-16T07:52:43.680Z,5.72
2023-02-16T07:56:45.212Z,6.53
2023-02-16T08:00:46.970Z,7.53
2023-02-16T08:04:52.601Z,7.97
2023-02-16T08:08:54.244Z,6.65
2023-02-16T08:12:55.681Z,7.03
2023-02-16T08:16:57.145Z,7.25
2023-02-16T08:21:04.219Z,7.32
2023-02-16T08:25:07.159Z,6.57
2023-02-16T08:29:13.203Z,7.47
2023-02-16T08:33:14.633Z,5.63
2023-02-16T08:37:16.066Z,7.03
2023-02-16T08:41:22.672Z,7.65
2023-02-16T08:45:24.094Z,7.53
2023-02-16T08:49:26.008Z,5.68
2023-02-16T08:53:31.702Z,5.30
2023-02-16T08:57:34.726Z,6.85
2023-02-16T09:01:36.267Z,5.40
2023-02-16T09:05:38.794Z,6.28
2023-02-16T09:09:41.844Z,7.38
2023-02-16T09:13:44.877Z,5.55
2023-02-16T09:17:46.611Z,6.13
2023-02-16T09:21:50.775Z,7.05
2023-02-16T09:25:52.314Z,7.25
2023-02-16T09:29:53.709Z,7.65
2023-02-16T09:33:58.237Z,6.25
2023-02-16T09:37:59.929Z,7.55
2023-02-16T09:42:13.140Z,8.40
2023-02-16T09:46:22.187Z,8.75
2023-02-16T09:50:52.257Z,9.25
2023-02-16T09:54:53.080Z,9.18
2023-02-16T09:59:10.636Z,10.43
2023-02-16T10:03:31.927Z,9.73
2023-02-16T10:07:57.320Z,10.80
2023-02-16T10:12:06.507Z,13.18
2023-02-16T10:16:15.542Z,8.60
2023-02-16T10:20:23.659Z,9.23
2023-02-16T10:24:29.292Z,9.48
2023-02-16T10:28:47.505Z,11.95
2023-02-16T10:33:15.394Z,8.05
2023-02-16T10:37:34.695Z,8.13
2023-02-16T10:41:45.485Z,10.27
2023-02-16T10:45:52.340Z,7.65
2023-02-16T10:49:54.878Z,9.30
2023-02-16T10:54:05.346Z,9.45
2023-02-16T10:58:16.860Z,6.95
2023-02-16T11:02:27.483Z,6.95
2023-02-16T11:06:29.311Z,7.45
2023-02-16T11:10:52.083Z,7.60
2023-02-16T11:15:02.310Z,9.30
2023-02-16T11:19:18.631Z,8.98
2023-02-16T11:23:20.054Z,11.50
2023-02-16T11:27:24.060Z,9.25
2023-02-16T11:31:32.067Z,7.95
2023-02-16T11:35:42.213Z,7.60
2023-02-16T11:39:59.974Z,8.00
2023-02-16T11:44:03.641Z,10.38
2023-02-16T11:48:08.344Z,10.25
2023-02-16T11:52:25.448Z,9.88
2023-02-16T11:56:30.252Z,8.45
2023-02-16T12:00:31.862Z,10.07
2023-02-16T12:04:59.080Z,8.43
2023-02-16T12:09:19.788Z,9.70
2023-02-16T12:13:45.734Z,7.53
2023-02-16T12:18:32.364Z,8.25
2023-02-16T12:22:45.906Z,8.65
2023-02-16T12:26:57.816Z,6.82
2023-02-16T12:31:09.663Z,9.73
2023-02-16T12:35:21.807Z,9.32
2023-02-16T12:39:50.364Z,9.93
2023-02-16T12:43:55.976Z,9.40
2023-02-16T12:48:01.606Z,7.95
2023-02-16T12:52:11.148Z,10.43
2023-02-16T12:56:21.046Z,11.15
2023-02-16T13:00:46.195Z,9.20
2023-02-16T13:04:56.118Z,7.82
2023-02-16T13:09:10.327Z,9.38
2023-02-16T13:13:20.713Z,9.45
2023-02-16T13:17:33.173Z,11.00
2023-02-16T13:21:51.760Z,7.40
2023-02-16T13:26:18.328Z,8.55
2023-02-16T13:30:35.285Z,7.25
2023-02-16T13:34:52.501Z,9.70
2023-02-16T13:39:13.704Z,9.48
2023-02-16T13:43:36.493Z,8.50
2023-02-16T13:47:40.603Z,10.07
2023-02-16T13:51:46.081Z,9.10
2023-02-16T13:55:50.635Z,11.57
2023-02-16T14:00:00.583Z,10.55
2023-02-16T14:04:03.152Z,8.90
2023-02-16T14:08:13.228Z,10.98
2023-02-16T14:12:22.405Z,11.57
2023-02-16T14:16:31.509Z,10.07
2023-02-16T14:20:33.036Z,9.30
2023-02-16T14:24:38.054Z,8.93
2023-02-16T14:29:18.954Z,10.05
2023-02-16T14:33:39.887Z,9.10
2023-02-16T14:37:51.045Z,9.60
2023-02-16T14:41:54.675Z,12.05
2023-02-16T14:46:34.169Z,11.35
2023-02-16T14:50:47.098Z,4.97
2023-02-16T14:55:13.238Z,4.50
2023-02-16T14:59:58.303Z,4.95
2023-02-16T15:03:59.908Z,6.80
2023-02-16T15:08:11.474Z,9.07
2023-02-16T15:12:23.844Z,6.90
2023-02-16T15:16:25.419Z,9.13
2023-02-16T15:20:36.952Z,10.07
2023-02-16T15:24:38.469Z,10.55
2023-02-16T15:28:42.059Z,11.13
2023-02-16T15:32:52.198Z,11.55
2023-02-16T15:36:53.774Z,12.30
2023-02-16T15:40:56.980Z,13.20
2023-02-16T15:44:58.938Z,12.73
2023-02-16T15:49:26.440Z,11.20
2023-02-16T15:53:34.958Z,12.57
2023-02-16T15:57:39.907Z,12.15
2023-02-16T16:01:41.639Z,11.60
2023-02-16T16:05:55.302Z,12.27
2023-02-16T16:09:58.040Z,9.98
2023-02-16T16:14:00.001Z,12.82
2023-02-16T16:18:02.600Z,12.93
2023-02-16T16:22:28.914Z,9.88
2023-02-16T16:26:35.273Z,11.60
2023-02-16T16:30:43.774Z,10.95
2023-02-16T16:34:45.621Z,9.52
2023-02-16T16:38:47.713Z,10.77
2023-02-16T16:43:04.455Z,9.93
2023-02-16T16:47:11.903Z,10.07
2023-02-16T16:51:27.647Z,9.65
2023-02-16T16:55:32.626Z,10.25
2023-02-16T16:59:34.107Z,10.02
2023-02-16T17:03:35.521Z,9.90
2023-02-16T17:07:37.009Z,10.30
2023-02-16T17:11:38.616Z,10.57
2023-02-16T17:15:52.488Z,10.20
2023-02-16T17:19:54.105Z,9.75
2023-02-16T17:23:55.597Z,8.95
2023-02-16T17:27:57.422Z,9.98
2023-02-16T17:31:59.213Z,10.25
2023-02-16T17:36:06.001Z,13.27
2023-02-16T17:40:17.249Z,12.75
2023-02-16T17:44:18.674Z,5.95
2023-02-16T17:48:23.593Z,5.35
2023-02-16T17:52:25.170Z,7.63
2023-02-16T17:56:26.836Z,6.95
2023-02-16T18:00:28.294Z,6.75
2023-02-16T18:04:29.751Z,6.82
2023-02-16T18:08:31.200Z,8.57
2023-02-16T18:12:32.708Z,8.05
2023-02-16T18:16:34.124Z,5.70
2023-02-16T18:20:35.565Z,7.10
2023-02-16T18:24:37.010Z,9.25
2023-02-16T18:28:38.438Z,8.32
2023-02-16T18:32:41.738Z,8.50
2023-02-16T18:36:43.545Z,6.30
2023-02-16T18:40:45.366Z,10.85
2023-02-16T18:44:48.936Z,11.18
2023-02-16T18:54:20.523Z,10.65
2023-02-16T18:59:31.320Z,11.60
2023-02-16T19:06:06.856Z,9.98
2023-02-16T19:47:36.033Z,5.97
2023-02-16T20:31:42.456Z,9.15
2023-02-16T20:36:21.307Z,8.60
2023-02-16T20:50:43.283Z,8.40
2023-02-16T21:00:30.560Z,8.98
2023-02-16T21:05:06.546Z,9.05
2023-02-16T21:21:11.409Z,9.27
2023-02-16T21:26:09.943Z,6.07
2023-02-16T21:31:37.194Z,7.72
2023-02-16T21:42:26.597Z,8.13
2023-02-16T21:48:02.078Z,6.82
2023-02-16T21:53:26.189Z,6.78
2023-02-16T21:58:48.785Z,6.13
2023-02-16T22:03:43.050Z,6.20
2023-02-16T22:08:40.163Z,5.82
2023-02-16T22:18:45.518Z,7.65
2023-02-16T22:29:44.180Z,8.80
2023-02-16T22:51:53.799Z,8.00
2023-02-16T23:14:11.559Z,8.15
2023-02-16T23:31:11.571Z,4.97
2023-02-16T23:36:32.802Z,3.97
2023-02-16T23:42:24.132Z,5.82
2023-02-16T23:48:39.792Z,5.15
